createdAt,value
2023-02-17T00:01:36.183Z,99.60
2023-02-17T00:04:04.507Z,95.20
2023-02-17T00:06:33.316Z,94.60
2023-02-17T00:09:02.000Z,102.57
2023-02-17T00:11:30.602Z,92.10
2023-02-17T00:14:00.349Z,94.20
2023-02-17T00:16:30.130Z,106.47
2023-02-17T00:19:01.083Z,94.07
2023-02-17T00:21:31.248Z,92.27
2023-02-17T00:24:00.227Z,97.03
2023-02-17T00:26:28.706Z,92.20
2023-02-17T00:28:56.876Z,91.87
2023-02-17T00:31:25.381Z,94.37
2023-02-17T00:33:57.628Z,94.80
2023-02-17T00:36:29.878Z,92.80
2023-02-17T00:38:59.695Z,87.47
2023-02-17T00:41:29.109Z,92.50
2023-02-17T00:43:59.301Z,91.33
2023-02-17T00:46:29.233Z,100.50
2023-02-17T00:48:59.154Z,87.77
2023-02-17T00:51:27.612Z,84.37
2023-02-17T00:53:55.862Z,94.40
2023-02-17T00:56:24.084Z,86.63
2023-02-17T00:58:52.380Z,89.50
2023-02-17T01:01:20.770Z,79.03
2023-02-17T01:03:49.045Z,91.57
2023-02-17T01:06:24.534Z,83.05
2023-02-17T01:08:52.971Z,84.67
2023-02-17T01:11:23.321Z,89.10
2023-02-17T01:13:52.319Z,89.20
2023-02-17T01:16:23.388Z,90.33
2023-02-17T01:18:51.756Z,79.37
2023-02-17T01:21:24.467Z,83.77
2023-02-17T01:23:54.024Z,88.93
2023-02-17T01:26:24.494Z,83.23
2023-02-17T01:28:53.945Z,82.80
2023-02-17T01:31:23.848Z,85.70
2023-02-17T01:33:52.149Z,85.53
2023-02-17T01:36:22.130Z,98.63
2023-02-17T01:38:50.881Z,85.93
2023-02-17T01:41:22.001Z,86.27
2023-02-17T01:44:13.042Z,85.23
2023-02-17T01:46:42.637Z,81.73
2023-02-17T01:49:30.448Z,83.30
2023-02-17T01:52:08.235Z,85.60
2023-02-17T01:54:42.503Z,85.97
2023-02-17T01:57:12.769Z,86.90
2023-02-17T01:59:43.313Z,91.20
2023-02-17T02:02:12.504Z,85.77
2023-02-17T02:04:46.527Z,85.40
2023-02-17T02:07:21.693Z,81.50
2023-02-17T02:09:56.132Z,89.00
2023-02-17T02:12:26.734Z,84.50
2023-02-17T02:14:58.755Z,92.40
2023-02-17T02:17:38.573Z,85.33
2023-02-17T02:20:42.757Z,82.90
2023-02-17T02:23:39.375Z,84.37
2023-02-17T02:26:44.336Z,81.37
2023-02-17T02:29:29.558Z,91.40
2023-02-17T02:32:10.143Z,88.63
2023-02-17T02:34:46.577Z,98.10
2023-02-17T02:37:18.929Z,94.83
2023-02-17T02:39:51.936Z,105.90
2023-02-17T02:42:24.012Z,92.70
2023-02-17T02:44:52.629Z,88.90
2023-02-17T02:47:45.244Z,88.13
2023-02-17T02:50:21.339Z,88.40
2023-02-17T02:53:00.100Z,85.03
2023-02-17T02:55:38.596Z,92.53
2023-02-17T02:58:12.538Z,98.03
2023-02-17T03:00:47.698Z,92.87
2023-02-17T03:03:21.335Z,85.77
2023-02-17T03:05:56.422Z,84.87
2023-02-17T03:08:30.221Z,88.33
2023-02-17T03:10:59.253Z,91.97
2023-02-17T03:13:27.739Z,87.97
2023-02-17T03:15:56.048Z,87.73
2023-02-17T03:18:24.305Z,87.17
2023-02-17T03:20:56.169Z,89.37
2023-02-17T03:23:26.228Z,86.27
2023-02-17T03:25:54.507Z,89.93
2023-02-17T03:28:22.805Z,88.63
2023-02-17T03:30:52.926Z,85.90
2023-02-17T03:33:21.169Z,82.57
2023-02-17T03:35:49.460Z,90.63
2023-02-17T03:38:19.045Z,91.50
2023-02-17T03:40:47.283Z,87.83
2023-02-17T03:43:17.943Z,88.63
2023-02-17T03:45:46.441Z,87.50
2023-02-17T03:48:14.657Z,90.77
2023-02-17T03:50:42.828Z,95.03
2023-02-17T03:53:12.384Z,94.40
2023-02-17T03:55:42.018Z,102.67
2023-02-17T03:58:10.235Z,98.13
2023-02-17T04:00:38.436Z,93.07
2023-02-17T04:03:06.753Z,95.33
2023-02-17T04:05:35.030Z,96.97
2023-02-17T04:08:03.332Z,85.63
2023-02-17T04:10:31.586Z,93.13
2023-02-17T04:13:01.257Z,86.30
2023-02-17T04:15:29.979Z,89.50
2023-02-17T04:17:58.180Z,97.00
2023-02-17T04:20:26.468Z,100.90
2023-02-17T04:22:54.630Z,94.47
2023-02-17T04:25:23.530Z,95.37
2023-02-17T04:27:51.876Z,98.23
2023-02-17T04:30:21.774Z,96.97
2023-02-17T04:32:50.066Z,105.27
2023-02-17T04:35:18.541Z,108.03
2023-02-17T04:37:46.746Z,93.57
2023-02-17T04:40:15.501Z,102.97
2023-02-17T04:42:43.719Z,102.63
2023-02-17T04:45:12.625Z,113.30
2023-02-17T04:47:42.381Z,110.43
2023-02-17T04:50:11.718Z,100.47
2023-02-17T04:52:40.063Z,101.70
2023-02-17T04:55:09.267Z,93.00
2023-02-17T04:57:37.689Z,100.03
2023-02-17T05:00:07.537Z,111.97
2023-02-17T05:02:35.967Z,107.50
2023-02-17T05:05:05.742Z,113.50
2023-02-17T05:07:34.060Z,115.67
2023-02-17T05:10:02.281Z,110.70
2023-02-17T05:12:30.478Z,113.80
2023-02-17T05:14:58.664Z,108.20
2023-02-17T05:17:26.987Z,111.37
2023-02-17T05:19:55.187Z,105.03
2023-02-17T05:22:24.809Z,101.80
2023-02-17T05:24:53.160Z,110.27
2023-02-17T05:27:21.910Z,100.70
2023-02-17T05:29:51.574Z,112.43
2023-02-17T05:32:19.821Z,107.90
2023-02-17T05:34:48.023Z,104.63
2023-02-17T05:37:16.315Z,104.77
2023-02-17T05:39:46.026Z,108.57
2023-02-17T05:42:14.205Z,101.20
2023-02-17T05:44:42.448Z,106.73
2023-02-17T05:47:11.036Z,99.97
2023-02-17T05:49:39.209Z,100.70
2023-02-17T05:52:07.439Z,104.73
2023-02-17T05:54:35.731Z,93.83
2023-02-17T05:57:05.784Z,113.30
2023-02-17T05:59:34.029Z,111.83
2023-02-17T06:02:02.221Z,110.17
2023-02-17T06:04:30.465Z,100.23
2023-02-17T06:06:58.648Z,99.13
2023-02-17T06:09:26.960Z,91.60
2023-02-17T06:11:55.124Z,97.73
2023-02-17T06:14:24.722Z,92.30
2023-02-17T06:16:53.796Z,110.83
2023-02-17T06:19:21.998Z,105.97
2023-02-17T06:21:50.225Z,102.50
2023-02-17T06:24:18.472Z,103.20
2023-02-17T06:26:46.643Z,94.32
2023-02-17T06:29:14.908Z,98.67
2023-02-17T06:31:44.581Z,96.10
2023-02-17T06:34:12.971Z,102.60
2023-02-17T06:36:41.178Z,100.93
2023-02-17T06:39:09.438Z,110.30
2023-02-17T06:41:37.698Z,107.07
2023-02-17T06:44:06.082Z,106.37
2023-02-17T06:46:34.329Z,103.53
2023-02-17T06:49:03.957Z,106.57
2023-02-17T06:51:32.277Z,119.17
2023-02-17T06:54:00.478Z,121.00
2023-02-17T06:56:28.731Z,116.67
2023-02-17T06:58:57.027Z,107.70
2023-02-17T07:01:26.962Z,112.57
2023-02-17T07:03:55.890Z,108.93
2023-02-17T07:06:26.846Z,118.15
2023-02-17T07:08:55.196Z,114.30
2023-02-17T07:11:23.405Z,109.80
2023-02-17T07:13:51.611Z,119.27
2023-02-17T07:16:19.838Z,111.97
2023-02-17T07:18:48.071Z,102.38
2023-02-17T07:21:16.481Z,103.60
2023-02-17T07:23:46.159Z,111.50
2023-02-17T07:26:14.452Z,108.03
2023-02-17T07:28:42.997Z,116.88
2023-02-17T07:31:13.391Z,130.25
2023-02-17T07:33:42.676Z,117.88
2023-02-17T07:36:12.682Z,112.28
2023-02-17T07:38:42.104Z,109.22
2023-02-17T07:41:15.005Z,110.43
2023-02-17T07:43:43.707Z,102.68
2023-02-17T07:46:13.010Z,108.00
2023-02-17T07:48:41.462Z,88.22
2023-02-17T07:51:11.420Z,87.55
2023-02-17T07:53:40.571Z,88.18
2023-02-17T07:56:12.100Z,87.13
2023-02-17T07:58:42.397Z,83.30
2023-02-17T08:01:12.246Z,80.85
2023-02-17T08:03:41.293Z,74.28
2023-02-17T08:06:11.908Z,78.78
2023-02-17T08:08:57.381Z,81.97
2023-02-17T08:11:46.061Z,88.38
2023-02-17T08:14:15.685Z,75.15
2023-02-17T08:16:44.105Z,80.95
2023-02-17T08:19:12.564Z,83.68
2023-02-17T08:21:41.007Z,80.38
2023-02-17T08:24:09.464Z,74.75
2023-02-17T08:26:39.101Z,67.40
2023-02-17T08:29:07.438Z,74.18
2023-02-17T08:31:37.683Z,67.40
2023-02-17T08:34:07.988Z,64.28
2023-02-17T08:36:37.607Z,71.30
2023-02-17T08:39:07.529Z,70.20
2023-02-17T08:41:39.373Z,65.65
2023-02-17T08:44:10.375Z,68.65
2023-02-17T08:46:38.993Z,63.50
2023-02-17T08:49:08.054Z,67.82
2023-02-17T08:51:37.020Z,66.07
2023-02-17T08:54:08.046Z,72.90
2023-02-17T08:56:38.574Z,64.55
2023-02-17T08:59:07.433Z,60.83
2023-02-17T09:01:36.164Z,62.28
2023-02-17T09:04:06.112Z,65.85
2023-02-17T09:06:36.303Z,65.57
2023-02-17T09:09:06.256Z,63.70
2023-02-17T09:11:34.650Z,63.58
2023-02-17T09:14:04.853Z,58.70
2023-02-17T09:16:33.217Z,62.03
2023-02-17T09:19:01.512Z,68.05
2023-02-17T09:21:29.784Z,58.08
2023-02-17T09:23:58.154Z,56.10
2023-02-17T09:26:26.499Z,61.33
2023-02-17T09:28:54.786Z,64.22
2023-02-17T09:31:26.142Z,58.00
2023-02-17T09:33:55.394Z,63.90
2023-02-17T09:36:26.099Z,59.83
2023-02-17T09:38:54.982Z,57.30
2023-02-17T09:41:25.601Z,57.78
2023-02-17T09:43:55.812Z,61.53
2023-02-17T09:46:30.287Z,60.00
2023-02-17T09:49:04.650Z,60.83
2023-02-17T09:51:38.881Z,59.72
2023-02-17T09:54:13.427Z,54.72
2023-02-17T09:56:46.189Z,55.95
2023-02-17T09:59:19.713Z,59.67
2023-02-17T10:01:51.666Z,61.20
2023-02-17T10:04:25.249Z,63.83
2023-02-17T10:06:57.402Z,63.50
2023-02-17T10:09:31.804Z,62.88
2023-02-17T10:12:03.895Z,65.93
2023-02-17T10:14:37.272Z,61.17
2023-02-17T10:17:11.454Z,60.03
2023-02-17T10:19:48.624Z,67.18
2023-02-17T10:22:19.868Z,70.10
2023-02-17T10:24:48.266Z,66.40
2023-02-17T10:27:37.490Z,78.30
2023-02-17T10:30:27.729Z,74.10
2023-02-17T10:33:02.186Z,74.28
2023-02-17T10:35:43.515Z,86.30
2023-02-17T10:38:17.638Z,77.53
2023-02-17T10:40:51.332Z,70.72
2023-02-17T10:43:25.635Z,75.80
2023-02-17T10:45:54.175Z,67.32
2023-02-17T10:48:26.158Z,72.90
2023-02-17T10:50:58.010Z,70.63
2023-02-17T10:53:31.248Z,68.78
2023-02-17T10:56:04.575Z,74.28
2023-02-17T10:58:36.470Z,76.93
2023-02-17T11:01:06.542Z,73.80
2023-02-17T11:03:38.445Z,66.93
2023-02-17T11:06:17.024Z,71.38
2023-02-17T11:08:50.114Z,72.10
2023-02-17T11:11:20.776Z,73.15
2023-02-17T11:14:10.737Z,73.85
2023-02-17T11:16:41.306Z,69.68
2023-02-17T11:19:23.658Z,67.63
2023-02-17T11:21:52.749Z,75.18
2023-02-17T11:24:21.198Z,68.65
2023-02-17T11:26:58.386Z,69.78
2023-02-17T11:29:26.630Z,70.32
2023-02-17T11:31:56.889Z,66.90
2023-02-17T11:34:29.111Z,63.88
2023-02-17T11:37:03.104Z,70.07
2023-02-17T11:39:31.500Z,76.90
2023-02-17T11:41:59.742Z,68.13
2023-02-17T11:44:29.480Z,64.20
2023-02-17T11:47:08.284Z,66.90
2023-02-17T11:50:02.125Z,67.50
2023-02-17T11:52:49.515Z,61.22
2023-02-17T11:55:23.704Z,60.60
2023-02-17T11:58:10.070Z,59.83
2023-02-17T12:00:47.647Z,63.97
2023-02-17T12:03:58.828Z,66.15
2023-02-17T12:06:38.062Z,61.92
2023-02-17T12:09:18.644Z,65.03
2023-02-17T12:11:52.698Z,61.45
2023-02-17T12:14:41.085Z,63.00
2023-02-17T12:17:18.913Z,66.85
2023-02-17T12:19:54.446Z,63.40
2023-02-17T12:22:31.899Z,69.40
2023-02-17T12:25:26.871Z,65.50
2023-02-17T12:28:06.920Z,58.63
2023-02-17T12:30:48.235Z,59.28
2023-02-17T12:33:36.009Z,59.13
2023-02-17T12:36:08.992Z,64.13
2023-02-17T12:38:42.930Z,59.10
2023-02-17T12:41:16.185Z,66.00
2023-02-17T12:43:49.428Z,64.78
2023-02-17T12:46:21.224Z,66.05
2023-02-17T12:48:53.328Z,65.75
2023-02-17T12:51:27.392Z,65.03
2023-02-17T12:54:00.671Z,64.30
2023-02-17T12:56:58.414Z,58.78
2023-02-17T12:59:33.040Z,63.88
2023-02-17T13:02:03.327Z,67.18
2023-02-17T13:04:33.684Z,64.35
2023-02-17T13:07:21.361Z,63.92
2023-02-17T13:09:52.507Z,62.05
2023-02-17T13:12:41.649Z,67.50
2023-02-17T13:15:38.441Z,61.97
2023-02-17T13:18:12.428Z,59.58
2023-02-17T13:20:59.039Z,58.38
2023-02-17T13:23:30.763Z,59.83
2023-02-17T13:26:30.044Z,60.97
2023-02-17T13:29:34.724Z,51.50
2023-02-17T13:32:05.533Z,59.67
2023-02-17T13:34:36.293Z,63.30
2023-02-17T13:37:18.414Z,52.80
2023-02-17T13:39:47.409Z,52.03
2023-02-17T13:42:45.291Z,54.90
2023-02-17T13:45:24.080Z,51.70
2023-02-17T13:47:53.838Z,61.25
2023-02-17T13:50:34.525Z,67.10
2023-02-17T13:53:04.063Z,57.63
2023-02-17T13:55:32.362Z,58.25
2023-02-17T13:58:02.053Z,55.90
2023-02-17T14:00:31.627Z,48.88
2023-02-17T14:03:07.434Z,51.78
2023-02-17T14:05:41.470Z,49.92
2023-02-17T14:08:18.438Z,43.72
2023-02-17T14:10:47.355Z,47.40
2023-02-17T14:13:17.244Z,43.40
2023-02-17T14:15:54.325Z,50.28
2023-02-17T14:18:35.423Z,53.70
2023-02-17T14:21:12.037Z,52.97
2023-02-17T14:23:49.149Z,52.72
2023-02-17T14:26:30.530Z,46.08
2023-02-17T14:29:02.182Z,49.70
2023-02-17T14:31:30.839Z,57.78
2023-02-17T14:34:01.561Z,54.25
2023-02-17T14:36:35.740Z,52.60
2023-02-17T14:39:06.304Z,55.20
2023-02-17T14:41:34.769Z,56.15
2023-02-17T14:44:06.108Z,54.53
2023-02-17T14:46:34.772Z,55.65
2023-02-17T14:49:03.153Z,54.88
2023-02-17T14:51:35.188Z,54.15
2023-02-17T14:54:04.582Z,55.95
2023-02-17T14:56:35.925Z,54.55
2023-02-17T14:59:05.697Z,65.50
2023-02-17T15:01:33.948Z,53.83
2023-02-17T15:04:02.930Z,52.45
2023-02-17T15:06:37.448Z,52.90
2023-02-17T15:09:06.200Z,59.38
2023-02-17T15:11:37.546Z,52.78
2023-02-17T15:14:08.171Z,54.00
2023-02-17T15:16:36.591Z,62.75
2023-02-17T15:19:04.831Z,55.05
2023-02-17T15:21:34.872Z,57.88
2023-02-17T15:24:04.438Z,57.53
2023-02-17T15:26:34.148Z,63.60
2023-02-17T15:29:02.319Z,58.28
2023-02-17T15:31:35.400Z,60.60
2023-02-17T15:34:03.746Z,66.63
2023-02-17T15:36:32.871Z,59.00
2023-02-17T15:39:01.214Z,57.60
2023-02-17T15:41:31.744Z,57.60
2023-02-17T15:44:00.145Z,66.75
2023-02-17T15:46:34.298Z,67.18
2023-02-17T15:49:02.587Z,66.25
2023-02-17T15:51:30.777Z,72.18
2023-02-17T15:53:59.408Z,74.70
2023-02-17T15:56:31.253Z,77.63
2023-02-17T15:59:01.153Z,85.78
2023-02-17T16:01:32.030Z,99.93
2023-02-17T16:04:01.900Z,88.18
2023-02-17T16:06:30.659Z,70.30
2023-02-17T16:08:59.822Z,66.03
2023-02-17T16:11:29.046Z,66.80
2023-02-17T16:13:57.714Z,56.60
2023-02-17T16:16:29.654Z,66.35
2023-02-17T16:18:57.997Z,56.08
2023-02-17T16:21:27.800Z,59.15
2023-02-17T16:23:59.839Z,62.40
2023-02-17T16:26:33.617Z,65.57
2023-02-17T16:29:03.729Z,59.85
2023-02-17T16:31:35.924Z,63.25
2023-02-17T16:34:04.201Z,62.55
2023-02-17T16:36:36.679Z,61.50
2023-02-17T16:39:12.101Z,66.20
2023-02-17T16:41:40.687Z,63.25
2023-02-17T16:44:09.648Z,63.92
2023-02-17T16:46:38.872Z,63.70
2023-02-17T16:49:19.760Z,60.70
2023-02-17T16:51:49.437Z,71.90
2023-02-17T16:54:19.055Z,64.78
2023-02-17T16:56:49.234Z,57.40
2023-02-17T16:59:20.200Z,55.50
2023-02-17T17:01:49.559Z,53.35
2023-02-17T17:04:18.175Z,54.38
2023-02-17T17:06:50.758Z,52.55
2023-02-17T17:09:21.386Z,50.03
2023-02-17T17:11:50.144Z,52.90
2023-02-17T17:14:20.637Z,46.40
2023-02-17T17:16:52.593Z,43.80
2023-02-17T17:19:21.418Z,49.30
2023-02-17T17:21:51.189Z,51.55
2023-02-17T17:24:19.647Z,48.90
2023-02-17T17:26:50.270Z,52.08
2023-02-17T17:29:21.098Z,51.10
2023-02-17T17:31:49.552Z,48.95
2023-02-17T17:34:17.830Z,50.10
2023-02-17T17:36:48.015Z,55.78
2023-02-17T17:39:19.747Z,56.33
2023-02-17T17:41:48.498Z,55.53
2023-02-17T17:44:17.008Z,47.25
2023-02-17T17:46:45.652Z,48.80
2023-02-17T17:49:17.985Z,45.72
2023-02-17T17:51:46.307Z,54.90
2023-02-17T17:54:14.584Z,52.60
2023-02-17T17:56:45.002Z,42.47
2023-02-17T17:59:14.648Z,59.80
2023-02-17T18:01:45.616Z,47.28
2023-02-17T18:04:14.582Z,41.78
2023-02-17T18:06:45.431Z,42.72
2023-02-17T18:09:30.885Z,40.50
2023-02-17T18:12:05.596Z,46.85
2023-02-17T18:14:34.284Z,46.85
2023-02-17T18:17:02.649Z,48.53
2023-02-17T18:19:31.857Z,49.45
2023-02-17T18:22:00.172Z,53.70
2023-02-17T18:24:28.768Z,37.70
2023-02-17T18:26:57.061Z,35.45
2023-02-17T18:29:27.766Z,35.53
2023-02-17T18:31:57.512Z,38.88
2023-02-17T18:34:26.042Z,38.15
2023-02-17T18:36:54.247Z,39.30
2023-02-17T18:39:22.494Z,43.35
2023-02-17T18:41:50.766Z,45.25
2023-02-17T18:44:19.363Z,38.38
2023-02-17T18:46:48.927Z,39.53
2023-02-17T18:49:17.259Z,48.75
2023-02-17T18:51:45.474Z,36.63
2023-02-17T18:54:14.179Z,36.97
2023-02-17T18:56:42.483Z,36.53
2023-02-17T18:59:10.794Z,37.00
2023-02-17T19:01:41.017Z,37.85
2023-02-17T19:04:12.026Z,42.78
2023-02-17T19:06:40.672Z,36.97
2023-02-17T19:09:09.009Z,38.40
2023-02-17T19:11:37.391Z,37.38
2023-02-17T19:14:08.598Z,41.30
2023-02-17T19:16:36.844Z,38.65
2023-02-17T19:19:05.561Z,38.40
2023-02-17T19:21:36.424Z,38.63
2023-02-17T19:24:05.108Z,36.25
2023-02-17T19:26:34.194Z,36.05
2023-02-17T19:29:02.453Z,37.25
2023-02-17T19:31:31.774Z,35.40
2023-02-17T19:34:00.112Z,40.08
2023-02-17T19:36:28.486Z,40.28
2023-02-17T19:38:59.035Z,37.85
2023-02-17T19:41:27.314Z,38.30
2023-02-17T19:43:55.553Z,51.63
2023-02-17T19:46:25.758Z,54.38
2023-02-17T19:48:54.090Z,46.55
2023-02-17T19:51:22.853Z,51.45
2023-02-17T19:53:51.582Z,40.08
2023-02-17T19:56:24.404Z,46.45
2023-02-17T19:58:53.532Z,48.33
2023-02-17T20:01:23.474Z,47.70
2023-02-17T20:03:54.000Z,43.38
2023-02-17T20:06:24.441Z,56.63
2023-02-17T20:08:55.058Z,46.33
2023-02-17T20:11:25.017Z,48.08
2023-02-17T20:13:53.491Z,51.05
2023-02-17T20:16:21.881Z,47.70
2023-02-17T20:18:51.410Z,56.03
2023-02-17T20:21:21.638Z,55.78
2023-02-17T20:23:50.614Z,59.78
2023-02-17T20:26:21.725Z,53.00
2023-02-17T20:28:52.056Z,55.67
2023-02-17T20:31:20.683Z,59.13
2023-02-17T20:33:49.397Z,54.22
2023-02-17T20:36:18.309Z,51.83
2023-02-17T20:38:46.902Z,54.63
2023-02-17T20:41:17.820Z,55.60
2023-02-17T20:43:46.651Z,58.17
2023-02-17T20:46:26.053Z,52.90
2023-02-17T20:48:55.345Z,53.67
2023-02-17T20:51:24.609Z,65.32
2023-02-17T20:53:53.240Z,55.45
2023-02-17T20:56:23.414Z,59.80
2023-02-17T20:58:52.659Z,52.40
2023-02-17T21:01:22.227Z,53.80
2023-02-17T21:03:50.712Z,55.53
2023-02-17T21:06:23.048Z,61.72
2023-02-17T21:08:53.323Z,52.05
2023-02-17T21:11:22.098Z,49.47
2023-02-17T21:13:50.815Z,51.92
2023-02-17T21:16:22.373Z,44.75
2023-02-17T21:18:50.710Z,46.88
2023-02-17T21:21:19.119Z,45.67
2023-02-17T21:23:47.968Z,42.78
2023-02-17T21:26:17.169Z,40.97
2023-02-17T21:28:46.968Z,41.35
2023-02-17T21:31:16.261Z,40.05
2023-02-17T21:33:46.238Z,43.47
2023-02-17T21:36:16.755Z,40.30
2023-02-17T21:38:45.676Z,38.72
2023-02-17T21:41:15.989Z,36.40
2023-02-17T21:44:02.586Z,38.15
2023-02-17T21:46:31.490Z,36.03
2023-02-17T21:49:02.572Z,36.05
2023-02-17T21:51:31.554Z,35.75
2023-02-17T21:54:00.322Z,36.85
2023-02-17T21:56:29.023Z,35.80
2023-02-17T21:58:57.605Z,34.15
2023-02-17T22:01:30.212Z,34.65
2023-02-17T22:03:58.780Z,33.67
2023-02-17T22:06:30.304Z,26.98
2023-02-17T22:08:59.946Z,29.50
2023-02-17T22:11:30.757Z,19.40
2023-02-17T22:14:00.383Z,23.98
2023-02-17T22:16:31.380Z,14.52
2023-02-17T22:38:06.336Z,6.75
2023-02-17T22:40:34.562Z,4.22
2023-02-17T22:43:02.800Z,4.78
2023-02-17T22:45:31.138Z,9.43
2023-02-17T22:47:59.367Z,4.75
2023-02-17T22:50:27.690Z,6.10
2023-02-17T22:52:55.925Z,5.88
2023-02-17T22:55:25.564Z,8.90
2023-02-17T22:57:53.792Z,5.45
2023-02-17T23:00:22.334Z,2.85
2023-02-17T23:02:50.573Z,2.67
2023-02-17T23:05:20.233Z,3.88
2023-02-17T23:07:48.474Z,2.65
2023-02-17T23:10:16.686Z,3.70
2023-02-17T23:12:46.362Z,4.15
2023-02-17T23:15:14.825Z,3.30
2023-02-17T23:17:57.952Z,4.40
2023-02-17T23:20:26.649Z,5.70
2023-02-17T23:22:54.843Z,4.28
2023-02-17T23:25:23.100Z,4.40
2023-02-17T23:27:52.702Z,4.20
2023-02-17T23:30:23.192Z,4.18
2023-02-17T23:32:51.616Z,2.65
2023-02-17T23:35:20.024Z,4.45
2023-02-17T23:37:50.179Z,5.40
2023-02-17T23:40:19.335Z,4.05
2023-02-17T23:42:47.640Z,4.47
2023-02-17T23:45:17.427Z,4.10
2023-02-17T23:47:45.646Z,5.22
2023-02-17T23:50:16.197Z,5.60
2023-02-17T23:52:45.293Z,5.13
2023-02-17T23:55:13.563Z,4.68
2023-02-17T23:57:41.770Z,5.10
